Abisko, Sweden

11:36 PM CEST on June 25, 2017 (GMT +0200)
Unnamed Road | | Change Station

Elev 1223 ft 68.35 °N, 18.87 °E | Updated 8 minutes ago

Overcast
Overcast
46.8 °F
Feels Like 47 °F
N
0.0
Wind Variable Wind from North
Gusts 1.2 mph

Today
High -- | Low -- °F
--% Chance of Precip.
Yesterday
High -- | Low -- °F
Precip. -- in
Pressure 29.33 in
Visibility 6.2 miles
Clouds Few 800 ft
Scattered Clouds 2000 ft
Mostly Cloudy 5000 ft
Windchill 47 °F
Dew Point 41 °F
Humidity 80%
Rainfall 0.15 in
Snow Depth Not available.
1:00 AM 1:00 AM
Waxing Crescent, 5% visible
METAR ENDU 252050Z 35005KT 9999 FEW008 SCT020 BKN050 11/09 Q0993 RMK
Pressure 29.33 in
Visibility 6.2 miles
Clouds Few 800 ft
Scattered Clouds 2000 ft
Mostly Cloudy 5000 ft
Windchill 47 °F
Dew Point 41 °F
Humidity 80%
Rainfall 0.15 in
Snow Depth Not available.
1:00 AM 1:00 AM
Waxing Crescent, 5% visible
METAR ENDU 252050Z 35005KT 9999 FEW008 SCT020 BKN050 11/09 Q0993 RMK

Get Severe Weather Alerts

Thanks for signing up!

Be on the lookout for a verification email in your inbox.

You'll start receiving the daily forecast at 6 AM.

×

10-Day Weather Forecast

×

Almanac

Astronomy

Jun. 25, 2017 Rise Set
Actual Time
Civil Twilight
Nautical Twilight
Astronomical Twilight
Moon
Length of Visible Light
Length of Day
Tomorrow will be .
, % of the Moon is Illuminated

Today's Extremes

Country Highs Country Lows

Community

WunderPhotos

Category 6

Welcome to Category 6. This is the collective home for Weather Underground's featured writeups by Dr. Jeff Masters (right), Bob Henson (left), Chris Burt, and other regular contributors.

Nearby

Air Quality

  Air Quality AQ Index Pollutant
Not available.

Snow Depth

Station Depth Elevation

Earthquake Activity

City Distance Mag. Time & Date
Minimum magnitude displayed is 2.5.

Coastal Water Temperatures

Place Temperature

Stations

Nearby Weather Stations

Station Location Temp. Windchill Dew Point Humidity Wind Precip. Elev Updated Type